Time;durP1;ratioP1;P1;durP2;ratioP2;P2;SDS_P1;SDS_P2;PMS_P1;PMS_P2;Temp;Humidity;BMP_temperature;BMP_pressure;BME280_temperature;BME280_humidity;BME280_pressure;Samples;Min_cycle;Max_cycle;Signal;HPM_P1;HPM_P2
2023/03/20 04:01:57;;;;;;;2.00;0.70;;;11.70;79.50;;;;;;5387796;23;20986;-71
2023/03/20 04:04:25;;;;;;;2.40;0.67;;;11.80;79.40;;;;;;4976153;28;20434;-71
2023/03/20 04:06:52;;;;;;;2.00;0.70;;;11.80;79.50;;;;;;4975181;28;20446;-71
2023/03/20 04:09:19;;;;;;;1.90;0.70;;;11.80;78.70;;;;;;4975032;28;20908;-71
2023/03/20 04:11:49;;;;;;;1.80;0.60;;;11.70;78.30;;;;;;4974801;28;20489;-71
2023/03/20 04:14:16;;;;;;;1.90;0.70;;;11.70;79.00;;;;;;4975290;28;20430;-72
2023/03/20 04:16:42;;;;;;;1.93;0.70;;;11.60;78.90;;;;;;4975544;28;20454;-71
2023/03/20 04:19:10;;;;;;;1.90;0.70;;;11.60;79.20;;;;;;4974995;28;20442;-72
2023/03/20 04:21:37;;;;;;;1.87;0.67;;;11.60;79.10;;;;;;4975181;28;20493;-71
2023/03/20 04:24:04;;;;;;;2.00;0.70;;;11.50;78.80;;;;;;4974798;28;20454;-72
2023/03/20 04:26:31;;;;;;;1.90;0.70;;;11.40;79.30;;;;;;4974872;28;20446;-71
2023/03/20 04:28:58;;;;;;;2.10;0.70;;;11.50;79.50;;;;;;4974788;28;20537;-72
2023/03/20 04:31:25;;;;;;;2.00;0.70;;;11.50;79.40;;;;;;4974747;28;20589;-71
2023/03/20 04:33:51;;;;;;;2.00;0.80;;;11.50;79.50;;;;;;4974388;28;20854;-71
2023/03/20 04:36:19;;;;;;;2.93;0.80;;;11.50;79.30;;;;;;4974777;28;20457;-70
2023/03/20 04:38:46;;;;;;;2.40;0.70;;;11.30;80.20;;;;;;4974816;28;20454;-72
2023/03/20 04:41:12;;;;;;;2.10;0.80;;;11.20;80.30;;;;;;4974715;28;20524;-71
2023/03/20 04:43:40;;;;;;;1.90;0.77;;;11.10;80.00;;;;;;4974685;28;20446;-71
2023/03/20 04:46:07;;;;;;;2.00;0.80;;;11.00;80.40;;;;;;4974575;28;20546;-71
2023/03/20 04:48:33;;;;;;;2.10;1.00;;;11.00;80.50;;;;;;4974478;28;20458;-71
2023/03/20 04:51:00;;;;;;;2.03;0.80;;;11.10;80.80;;;;;;4974498;28;20874;-71
2023/03/20 04:53:28;;;;;;;2.20;0.93;;;11.10;80.70;;;;;;4974344;28;20450;-72
2023/03/20 04:55:54;;;;;;;2.00;0.80;;;11.20;80.50;;;;;;4974600;28;20450;-71
2023/03/20 04:58:22;;;;;;;1.90;0.70;;;11.20;80.30;;;;;;4974793;28;20446;-71
2023/03/20 05:00:49;;;;;;;2.10;0.80;;;11.20;80.40;;;;;;4974431;28;20486;-71
2023/03/20 05:03:15;;;;;;;2.20;0.70;;;11.20;80.40;;;;;;4974469;28;20431;-71
2023/03/20 05:05:42;;;;;;;1.97;0.73;;;11.20;80.20;;;;;;4975997;28;20459;-71
2023/03/20 05:08:09;;;;;;;1.90;0.70;;;11.00;80.30;;;;;;4978097;28;20989;-72
2023/03/20 05:10:37;;;;;;;1.90;0.70;;;11.00;80.70;;;;;;4978724;28;20446;-71
2023/03/20 05:13:03;;;;;;;2.17;0.77;;;11.10;80.60;;;;;;4978056;28;20482;-71
2023/03/20 05:15:30;;;;;;;1.83;0.70;;;11.10;80.50;;;;;;4978293;28;20505;-72
2023/03/20 05:17:57;;;;;;;2.43;0.70;;;11.10;80.60;;;;;;4978144;28;20458;-70
2023/03/20 05:20:24;;;;;;;1.90;0.80;;;11.20;80.20;;;;;;4977923;28;20458;-72
2023/03/20 05:22:51;;;;;;;2.00;0.80;;;11.30;80.30;;;;;;4977987;28;20875;-71
2023/03/20 05:25:18;;;;;;;2.00;0.90;;;11.30;80.20;;;;;;4977937;28;20542;-71
2023/03/20 05:27:46;;;;;;;1.90;0.77;;;11.40;80.00;;;;;;4977971;28;20450;-70
2023/03/20 05:30:14;;;;;;;4.90;0.73;;;11.50;79.90;;;;;;4977821;28;20446;-71
2023/03/20 05:32:42;;;;;;;1.90;0.70;;;11.50;79.70;;;;;;4977760;28;20494;-71
2023/03/20 05:35:09;;;;;;;1.90;0.73;;;11.60;79.40;;;;;;4977895;28;20450;-71
2023/03/20 05:37:36;;;;;;;1.90;0.70;;;11.60;79.00;;;;;;4977696;28;20801;-72
2023/03/20 05:40:04;;;;;;;1.90;0.70;;;11.50;79.20;;;;;;4977786;28;20537;-71
2023/03/20 05:42:30;;;;;;;2.10;0.80;;;11.50;79.30;;;;;;4977529;28;20541;-71
2023/03/20 05:44:58;;;;;;;2.00;0.70;;;11.50;79.40;;;;;;4977627;28;20889;-72
2023/03/20 05:47:25;;;;;;;1.93;0.77;;;11.50;79.30;;;;;;4977486;28;20529;-71
2023/03/20 05:49:52;;;;;;;1.90;0.80;;;11.50;79.00;;;;;;4977096;28;20871;-71
2023/03/20 05:52:18;;;;;;;3.00;1.03;;;11.60;79.10;;;;;;4977210;28;20540;-72
2023/03/20 05:54:45;;;;;;;2.27;0.90;;;11.60;79.20;;;;;;4977034;28;20454;-71
2023/03/20 05:57:11;;;;;;;2.10;1.20;;;11.60;78.90;;;;;;4977310;28;20504;-71
2023/03/20 05:59:38;;;;;;;2.50;1.40;;;11.50;78.40;;;;;;4977162;28;20508;-72
2023/03/20 06:02:07;;;;;;;2.37;1.30;;;11.40;78.60;;;;;;4976818;28;20505;-71
2023/03/20 06:04:34;;;;;;;2.93;1.80;;;11.40;78.90;;;;;;4977146;28;20504;-71
2023/03/20 06:07:00;;;;;;;2.57;1.63;;;11.50;78.90;;;;;;4977087;28;20454;-71
2023/03/20 06:09:27;;;;;;;2.50;1.13;;;11.50;79.10;;;;;;4976975;28;20505;-71
2023/03/20 06:11:54;;;;;;;2.33;1.27;;;11.50;78.70;;;;;;4976853;28;20533;-72
2023/03/20 06:14:20;;;;;;;1.83;0.80;;;11.60;78.60;;;;;;4977207;28;20877;-70
2023/03/20 06:16:47;;;;;;;2.40;1.00;;;11.60;78.30;;;;;;4975901;28;20521;-71
2023/03/20 06:19:15;;;;;;;2.00;0.80;;;11.70;78.30;;;;;;4976838;28;20458;-71
2023/03/20 06:21:42;;;;;;;2.23;1.23;;;11.60;78.50;;;;;;4976703;28;20466;-70
2023/03/20 06:24:08;;;;;;;2.17;1.07;;;11.50;78.40;;;;;;4976663;28;20446;-71
2023/03/20 06:26:35;;;;;;;2.20;1.00;;;11.50;79.10;;;;;;4976413;28;20886;-71
2023/03/20 06:29:02;;;;;;;2.50;0.80;;;11.60;79.20;;;;;;4976493;28;21010;-72
2023/03/20 06:31:28;;;;;;;2.30;0.87;;;11.70;79.60;;;;;;4976466;28;20478;-71
2023/03/20 06:33:55;;;;;;;2.10;0.93;;;11.70;79.30;;;;;;4976626;28;20455;-71
2023/03/20 06:36:23;;;;;;;1.83;0.77;;;11.80;78.90;;;;;;4976641;28;20446;-71
2023/03/20 06:38:50;;;;;;;2.00;0.80;;;11.90;78.50;;;;;;4976357;28;20458;-71
2023/03/20 06:41:17;;;;;;;2.00;0.80;;;12.00;78.60;;;;;;4976506;28;20506;-71
2023/03/20 06:43:44;;;;;;;1.97;0.87;;;12.00;78.60;;;;;;4976508;28;20450;-71
2023/03/20 06:46:10;;;;;;;2.57;0.70;;;12.10;78.50;;;;;;4976423;28;20462;-71
2023/03/20 06:48:37;;;;;;;1.90;0.80;;;12.20;77.90;;;;;;4976209;28;20935;-72
2023/03/20 06:51:05;;;;;;;2.00;0.70;;;12.10;77.40;;;;;;4976062;28;20988;-72
2023/03/20 06:53:33;;;;;;;2.40;0.80;;;12.20;77.70;;;;;;4976180;28;20540;-71
2023/03/20 06:56:00;;;;;;;2.27;1.10;;;12.20;78.00;;;;;;4976123;28;20484;-71
2023/03/20 06:58:26;;;;;;;2.10;0.93;;;12.00;77.50;;;;;;4976133;28;20454;-71
2023/03/20 07:00:54;;;;;;;1.83;0.73;;;12.00;77.40;;;;;;4975970;28;20588;-71
2023/03/20 07:03:20;;;;;;;2.20;1.00;;;11.80;77.80;;;;;;4976218;28;20529;-71
2023/03/20 07:05:47;;;;;;;1.90;0.80;;;11.90;78.70;;;;;;4977017;28;20461;-71
2023/03/20 07:08:14;;;;;;;2.03;1.00;;;12.00;78.70;;;;;;4976174;28;20501;-72
2023/03/20 07:10:42;;;;;;;2.03;0.80;;;11.80;79.60;;;;;;4976081;28;20549;-72
2023/03/20 07:13:11;;;;;;;2.50;1.57;;;11.90;80.30;;;;;;4975852;28;20489;-71
2023/03/20 07:15:37;;;;;;;2.23;1.00;;;12.20;79.70;;;;;;4976314;28;20465;-71
2023/03/20 07:18:04;;;;;;;2.10;0.93;;;12.40;79.50;;;;;;4976115;28;20455;-71
2023/03/20 07:20:31;;;;;;;2.20;1.00;;;12.10;78.40;;;;;;4975894;28;20462;-72
2023/03/20 07:22:58;;;;;;;2.03;0.90;;;12.20;79.40;;;;;;4976105;28;20450;-72
2023/03/20 07:25:25;;;;;;;2.10;1.00;;;12.40;79.10;;;;;;4975683;28;20894;-71
2023/03/20 07:27:53;;;;;;;2.30;1.10;;;12.40;78.30;;;;;;4975134;28;21031;-71
2023/03/20 07:30:20;;;;;;;2.60;1.20;;;12.10;78.00;;;;;;4975319;28;21002;-71
2023/03/20 07:32:47;;;;;;;2.27;1.03;;;12.00;78.80;;;;;;4975068;28;21026;-71
2023/03/20 07:35:14;;;;;;;2.00;0.90;;;12.10;79.20;;;;;;4974960;28;20912;-71
2023/03/20 07:37:41;;;;;;;2.13;0.97;;;12.10;79.00;;;;;;4975434;28;20501;-71
2023/03/20 07:40:09;;;;;;;2.10;1.00;;;12.10;78.90;;;;;;4975512;28;20450;-72
2023/03/20 07:42:36;;;;;;;2.20;1.20;;;12.10;79.60;;;;;;4975410;28;20478;-71
2023/03/20 07:45:05;;;;;;;2.90;1.03;;;12.10;79.80;;;;;;4975408;28;20524;-71
2023/03/20 07:47:32;;;;;;;2.20;0.90;;;12.20;79.90;;;;;;4975125;28;20962;-71
2023/03/20 07:49:58;;;;;;;2.00;0.80;;;12.10;80.80;;;;;;4975029;28;20958;-71
2023/03/20 07:52:25;;;;;;;2.37;1.00;;;12.00;81.00;;;;;;4975160;28;20495;-71
2023/03/20 07:54:52;;;;;;;2.57;1.37;;;12.20;80.80;;;;;;4975077;28;20481;-71
2023/03/20 07:57:19;;;;;;;2.40;1.30;;;12.20;80.50;;;;;;4974802;28;20974;-71
2023/03/20 07:59:45;;;;;;;2.50;1.50;;;12.20;80.30;;;;;;4974966;28;20454;-71
2023/03/20 08:02:16;;;;;;;2.70;1.60;;;12.20;79.60;;;;;;4974643;28;20474;-72
2023/03/20 08:04:43;;;;;;;1.97;0.93;;;12.10;79.30;;;;;;4975263;28;20442;-71
2023/03/20 08:07:10;;;;;;;2.40;1.20;;;12.10;79.00;;;;;;4975353;28;20593;-72
2023/03/20 08:09:37;;;;;;;2.37;1.17;;;12.10;79.30;;;;;;4974565;28;20898;-71
2023/03/20 08:12:04;;;;;;;1.90;0.83;;;12.20;79.20;;;;;;4974821;28;20470;-71
2023/03/20 08:14:31;;;;;;;2.20;1.20;;;12.10;79.10;;;;;;4975020;28;20501;-69
2023/03/20 08:16:58;;;;;;;2.40;0.90;;;12.10;78.00;;;;;;4974841;28;20450;-71
2023/03/20 08:19:27;;;;;;;2.17;0.90;;;12.30;78.90;;;;;;4974886;28;20454;-72
2023/03/20 08:21:53;;;;;;;2.20;1.10;;;12.40;78.40;;;;;;4974887;28;20504;-71
2023/03/20 08:24:20;;;;;;;2.00;0.90;;;12.50;78.30;;;;;;4975006;28;20454;-71
2023/03/20 08:26:47;;;;;;;2.00;0.90;;;12.40;76.50;;;;;;4975149;28;20546;-71
2023/03/20 08:29:16;;;;;;;2.20;1.03;;;12.20;77.20;;;;;;4974890;28;20457;-71
2023/03/20 08:31:42;;;;;;;2.30;0.97;;;12.10;77.80;;;;;;4974751;28;20573;-72
2023/03/20 08:34:09;;;;;;;2.13;1.07;;;11.70;77.20;;;;;;4974920;28;20490;-71
2023/03/20 08:36:38;;;;;;;2.20;1.00;;;11.80;80.10;;;;;;4974921;28;20446;-71
2023/03/20 08:39:05;;;;;;;2.37;1.00;;;11.80;78.90;;;;;;4974683;28;20454;-71
2023/03/20 08:41:32;;;;;;;1.90;0.80;;;12.00;78.80;;;;;;4974075;28;20476;-71
2023/03/20 08:43:59;;;;;;;2.10;0.90;;;12.30;77.90;;;;;;4974520;28;21002;-73
2023/03/20 08:46:25;;;;;;;2.07;0.80;;;12.40;77.00;;;;;;4974289;28;20874;-72
2023/03/20 08:48:52;;;;;;;2.17;1.20;;;12.50;76.30;;;;;;4974459;28;20553;-71
2023/03/20 08:51:19;;;;;;;2.00;0.97;;;12.40;75.50;;;;;;4974574;28;20810;-71
2023/03/20 08:53:47;;;;;;;2.10;0.90;;;12.50;76.90;;;;;;4974908;28;20577;-69
2023/03/20 08:56:13;;;;;;;2.20;0.83;;;12.60;75.00;;;;;;4974418;28;20457;-71
2023/03/20 08:58:40;;;;;;;2.00;0.87;;;12.70;75.40;;;;;;4974657;28;20512;-72
2023/03/20 09:01:08;;;;;;;2.10;0.90;;;12.70;75.00;;;;;;4975112;28;20537;-72
2023/03/20 09:03:35;;;;;;;2.47;1.13;;;12.90;75.40;;;;;;4975770;28;20430;-72
2023/03/20 09:06:05;;;;;;;2.30;1.10;;;13.20;73.90;;;;;;4975030;28;20450;-72
2023/03/20 09:08:32;;;;;;;2.47;0.97;;;13.10;72.20;;;;;;4974620;28;20561;-71
2023/03/20 09:11:00;;;;;;;2.60;1.23;;;12.90;74.50;;;;;;4974545;28;20470;-72
2023/03/20 09:13:27;;;;;;;2.20;0.97;;;13.00;73.40;;;;;;4974684;28;20486;-72
2023/03/20 09:15:55;;;;;;;2.03;0.97;;;13.20;72.60;;;;;;4974969;28;20447;-72
2023/03/20 09:18:22;;;;;;;2.20;1.10;;;13.10;72.50;;;;;;4974321;28;20822;-72
2023/03/20 09:20:49;;;;;;;5.80;1.40;;;13.40;72.00;;;;;;4974453;28;20474;-71
2023/03/20 09:23:16;;;;;;;2.00;0.90;;;13.30;72.10;;;;;;4974563;28;20455;-71
2023/03/20 09:25:43;;;;;;;4.33;0.90;;;13.40;72.50;;;;;;4974227;28;20450;-70
2023/03/20 09:28:11;;;;;;;2.03;0.97;;;13.60;74.10;;;;;;4974246;28;20454;-71
2023/03/20 09:30:38;;;;;;;1.90;0.90;;;13.60;72.00;;;;;;4974186;28;20450;-71
2023/03/20 09:33:05;;;;;;;2.10;0.93;;;13.70;71.70;;;;;;4974064;28;20537;-72
2023/03/20 09:35:32;;;;;;;2.10;1.00;;;13.70;72.00;;;;;;4974132;28;20554;-69
2023/03/20 09:37:58;;;;;;;2.17;1.00;;;13.70;72.10;;;;;;4974347;28;20581;-72
2023/03/20 09:40:28;;;;;;;2.13;1.03;;;13.60;71.60;;;;;;4973889;28;20454;-73
2023/03/20 09:43:07;;;;;;;2.63;0.93;;;13.60;72.30;;;;;;4975653;28;20439;-72
2023/03/20 09:45:44;;;;;;;2.00;0.90;;;13.70;71.00;;;;;;4974057;28;20489;-71
2023/03/20 09:48:15;;;;;;;2.23;1.00;;;13.80;71.10;;;;;;4974681;28;20430;-70
2023/03/20 09:50:52;;;;;;;2.60;1.00;;;13.80;70.30;;;;;;4974156;28;20470;-73
2023/03/20 09:53:27;;;;;;;2.60;0.90;;;13.90;71.00;;;;;;4976382;28;20470;-72
2023/03/20 09:55:55;;;;;;;2.10;1.10;;;13.80;70.40;;;;;;4977831;28;20493;-72
2023/03/20 09:58:25;;;;;;;2.20;1.03;;;13.70;71.40;;;;;;4977506;28;20450;-73
2023/03/20 10:00:57;;;;;;;2.50;0.90;;;13.60;71.10;;;;;;4977051;28;20494;-72
2023/03/20 10:03:28;;;;;;;2.37;1.13;;;13.50;70.90;;;;;;4977163;28;20908;-73
2023/03/20 10:06:00;;;;;;;2.63;1.37;;;13.60;71.30;;;;;;4977392;28;20435;-73
2023/03/20 10:08:32;;;;;;;2.23;1.00;;;13.60;71.30;;;;;;4977130;28;20441;-73
2023/03/20 10:11:10;;;;;;;2.27;1.03;;;13.70;70.70;;;;;;4977884;28;20524;-73
2023/03/20 10:14:08;;;;;;;2.73;0.90;;;13.40;70.50;;;;;;4977004;28;20565;-73
2023/03/20 10:16:46;;;;;;;1.97;0.90;;;13.40;70.80;;;;;;4973905;28;20450;-73
2023/03/20 10:19:22;;;;;;;3.20;1.60;;;13.60;70.80;;;;;;4977023;28;20492;-73
2023/03/20 10:21:52;;;;;;;2.10;0.90;;;13.90;70.30;;;;;;4977105;28;20548;-73
2023/03/20 10:24:24;;;;;;;2.50;1.00;;;14.10;70.10;;;;;;4977605;28;20427;-73
2023/03/20 10:26:53;;;;;;;1.97;0.90;;;14.00;67.70;;;;;;4977101;28;20435;-73
2023/03/20 10:29:27;;;;;;;2.70;1.00;;;13.90;68.20;;;;;;4977055;28;20505;-71
2023/03/20 10:32:03;;;;;;;2.10;0.83;;;13.70;70.00;;;;;;4976370;28;20524;-71
2023/03/20 10:34:50;;;;;;;2.40;1.00;;;13.70;71.30;;;;;;4976720;28;20557;-73
2023/03/20 10:37:30;;;;;;;2.10;1.00;;;13.60;69.70;;;;;;4976615;28;20493;-72
2023/03/20 10:40:08;;;;;;;2.20;1.00;;;13.60;69.20;;;;;;4976754;28;20836;-72
2023/03/20 10:42:40;;;;;;;3.37;1.00;;;13.60;70.10;;;;;;4976506;28;20478;-72
2023/03/20 10:45:19;;;;;;;2.00;0.90;;;13.60;70.20;;;;;;4976720;28;20446;-73
2023/03/20 10:47:51;;;;;;;2.10;1.00;;;13.60;69.80;;;;;;4976584;28;20439;-71
2023/03/20 10:50:21;;;;;;;2.30;0.83;;;13.70;68.50;;;;;;4976901;28;20438;-71
2023/03/20 10:52:51;;;;;;;2.00;0.93;;;13.80;68.50;;;;;;4976401;28;20458;-71
2023/03/20 10:55:21;;;;;;;2.37;1.00;;;13.80;68.00;;;;;;4976449;28;20480;-72
2023/03/20 10:57:52;;;;;;;2.27;1.03;;;13.90;69.00;;;;;;4976225;28;20457;-71
2023/03/20 11:00:21;;;;;;;2.13;0.97;;;14.00;68.20;;;;;;4976274;28;20438;-72
2023/03/20 11:02:49;;;;;;;2.17;0.93;;;14.00;68.40;;;;;;4975220;28;20547;-71
2023/03/20 11:05:23;;;;;;;2.10;0.83;;;14.10;68.30;;;;;;4976319;28;20793;-73
2023/03/20 11:07:53;;;;;;;1.90;0.90;;;14.10;68.80;;;;;;4976073;28;20441;-72
2023/03/20 11:10:19;;;;;;;2.10;0.90;;;14.10;68.40;;;;;;4976089;28;20490;-74
2023/03/20 11:12:48;;;;;;;2.10;0.90;;;14.10;70.00;;;;;;4976047;28;20458;-71
2023/03/20 11:15:21;;;;;;;2.20;1.07;;;14.00;67.70;;;;;;4975909;28;20443;-72
2023/03/20 11:17:57;;;;;;;2.60;0.93;;;13.70;69.00;;;;;;4975729;28;20445;-72
2023/03/20 11:20:25;;;;;;;2.07;0.90;;;13.70;70.40;;;;;;4975690;28;20943;-72
2023/03/20 11:22:58;;;;;;;2.03;0.90;;;13.60;69.90;;;;;;4975771;28;20450;-73
2023/03/20 11:25:30;;;;;;;1.97;0.90;;;13.60;70.60;;;;;;4975966;28;20441;-73
2023/03/20 11:27:58;;;;;;;2.00;0.90;;;13.50;69.50;;;;;;4975856;28;20522;-73
2023/03/20 11:30:25;;;;;;;2.37;0.90;;;13.40;70.40;;;;;;4976038;28;20513;-73
2023/03/20 11:33:00;;;;;;;2.17;0.97;;;13.50;71.70;;;;;;4975743;28;20450;-74
2023/03/20 11:35:31;;;;;;;2.13;1.10;;;13.50;70.30;;;;;;4976160;28;20434;-73
2023/03/20 11:38:09;;;;;;;2.20;1.00;;;13.40;70.10;;;;;;4976537;28;20438;-73
2023/03/20 11:40:37;;;;;;;2.17;0.83;;;13.50;69.50;;;;;;4975564;28;20434;-72
2023/03/20 11:43:10;;;;;;;2.40;0.80;;;13.40;69.30;;;;;;4975894;28;20505;-74
2023/03/20 11:45:39;;;;;;;2.20;0.90;;;13.40;70.60;;;;;;4976154;28;20529;-73
2023/03/20 11:48:17;;;;;;;2.20;1.00;;;13.30;70.60;;;;;;4975559;28;20458;-73
2023/03/20 11:50:47;;;;;;;2.10;1.00;;;13.50;69.00;;;;;;4975215;28;20557;-72
2023/03/20 11:53:28;;;;;;;2.10;0.93;;;13.70;68.80;;;;;;4974745;28;20920;-73
2023/03/20 11:56:06;;;;;;;2.40;1.13;;;14.00;67.70;;;;;;4975095;28;20466;-72
2023/03/20 11:58:36;;;;;;;2.50;1.00;;;14.00;67.90;;;;;;4974806;28;20905;-71
2023/03/20 12:01:03;;;;;;;2.30;1.00;;;14.20;67.50;;;;;;4974736;28;20486;-72
2023/03/20 12:03:41;;;;;;;2.50;0.80;;;14.50;67.30;;;;;;4975171;28;20817;-73
2023/03/20 12:06:13;;;;;;;2.90;1.17;;;14.90;66.00;;;;;;4975229;28;20526;-72
2023/03/20 12:08:42;;;;;;;2.30;1.00;;;15.10;66.00;;;;;;4974871;28;20522;-73
2023/03/20 12:11:35;;;;;;;2.00;0.90;;;15.00;63.40;;;;;;4974858;28;20525;-72
2023/03/20 12:14:04;;;;;;;2.03;0.97;;;14.60;64.70;;;;;;4974847;28;20466;-72
2023/03/20 12:16:34;;;;;;;3.10;1.03;;;14.60;65.10;;;;;;4974465;28;20462;-71
2023/03/20 12:19:09;;;;;;;2.40;1.40;;;14.50;65.40;;;;;;4975001;28;20454;-72
2023/03/20 12:21:44;;;;;;;4.00;2.10;;;14.50;66.90;;;;;;4974598;28;20499;-71
2023/03/20 12:24:14;;;;;;;3.23;1.57;;;14.50;69.00;;;;;;4975121;28;20433;-72
2023/03/20 12:26:48;;;;;;;2.63;1.93;;;14.80;69.20;;;;;;4975033;28;20517;-72
2023/03/20 12:29:26;;;;;;;3.00;1.90;;;14.70;69.40;;;;;;4975635;28;20502;-73
2023/03/20 12:31:58;;;;;;;2.57;1.70;;;14.30;70.60;;;;;;4974508;28;20474;-72
2023/03/20 12:34:32;;;;;;;2.80;1.70;;;14.00;71.20;;;;;;4974609;28;20466;-73
2023/03/20 12:36:59;;;;;;;2.23;1.30;;;14.00;71.20;;;;;;4974555;28;20430;-72
2023/03/20 12:39:33;;;;;;;2.60;1.40;;;14.00;71.20;;;;;;4974173;28;21002;-73
2023/03/20 12:42:10;;;;;;;2.40;1.47;;;14.10;70.90;;;;;;4974428;28;20557;-72
2023/03/20 12:44:46;;;;;;;2.40;1.30;;;14.30;70.60;;;;;;4974439;28;20481;-71
2023/03/20 12:47:39;;;;;;;2.50;1.47;;;14.50;70.60;;;;;;4974519;28;20484;-72
2023/03/20 12:50:15;;;;;;;3.00;1.60;;;14.60;70.20;;;;;;4974735;28;20442;-72
2023/03/20 12:52:51;;;;;;;2.20;1.13;;;14.50;69.90;;;;;;4973983;28;21022;-71
2023/03/20 12:55:30;;;;;;;2.50;1.60;;;14.80;69.20;;;;;;4974289;28;20469;-72
2023/03/20 12:58:05;;;;;;;2.30;1.37;;;14.70;69.20;;;;;;4974419;28;20441;-72
2023/03/20 13:00:35;;;;;;;3.27;1.20;;;14.80;69.50;;;;;;4974052;28;20888;-71
2023/03/20 13:03:16;;;;;;;2.40;1.40;;;14.40;69.00;;;;;;4974370;28;20435;-71
2023/03/20 13:05:49;;;;;;;2.60;1.63;;;14.40;70.00;;;;;;4974356;28;20430;-71
2023/03/20 13:08:46;;;;;;;2.70;1.63;;;14.70;69.30;;;;;;4974360;28;20439;-72
2023/03/20 13:11:22;;;;;;;2.90;1.53;;;14.80;68.90;;;;;;4964036;28;20489;-72
2023/03/20 13:13:54;;;;;;;2.47;1.33;;;14.90;68.70;;;;;;4974130;28;20469;-72
2023/03/20 13:16:31;;;;;;;2.57;1.53;;;15.00;68.00;;;;;;4974437;28;20430;-72
2023/03/20 13:19:06;;;;;;;2.67;1.30;;;15.00;68.20;;;;;;4974235;28;20441;-72
2023/03/20 13:21:39;;;;;;;2.47;1.47;;;15.00;67.70;;;;;;4974007;28;20520;-71
2023/03/20 13:24:19;;;;;;;2.40;1.40;;;15.10;67.50;;;;;;4974540;28;20438;-72
2023/03/20 13:26:53;;;;;;;2.53;1.20;;;15.00;68.60;;;;;;4975701;28;20430;-70
2023/03/20 13:29:28;;;;;;;2.00;1.00;;;15.20;68.40;;;;;;4977742;28;20442;-72
2023/03/20 13:32:03;;;;;;;2.60;1.10;;;15.30;66.20;;;;;;4977614;28;20524;-72
2023/03/20 13:34:41;;;;;;;2.20;1.23;;;15.40;65.30;;;;;;4977262;28;20982;-73
2023/03/20 13:37:15;;;;;;;2.20;1.20;;;15.50;66.00;;;;;;4977581;28;20487;-72
2023/03/20 13:39:46;;;;;;;2.80;1.40;;;15.80;66.60;;;;;;4977577;28;20430;-72
2023/03/20 13:42:16;;;;;;;2.50;1.40;;;16.10;66.00;;;;;;4977482;28;20474;-72
2023/03/20 13:44:44;;;;;;;3.50;1.77;;;16.30;64.70;;;;;;4977968;28;20484;-71
2023/03/20 13:47:14;;;;;;;3.27;1.50;;;16.50;64.20;;;;;;4977115;28;20904;-72
2023/03/20 13:49:52;;;;;;;2.10;1.13;;;16.60;63.40;;;;;;4977316;28;20451;-72
2023/03/20 13:52:23;;;;;;;2.40;1.10;;;16.70;61.50;;;;;;4977203;28;20477;-71
2023/03/20 13:55:10;;;;;;;1.93;0.80;;;16.40;61.20;;;;;;4977620;28;20471;-71
2023/03/20 13:58:05;;;;;;;2.90;1.80;;;16.70;61.20;;;;;;4977216;28;20461;-73
2023/03/20 14:00:38;;;;;;;2.10;1.20;;;17.00;62.80;;;;;;4977422;28;20458;-71
2023/03/20 14:03:27;;;;;;;2.97;1.70;;;17.10;62.60;;;;;;4977268;28;20842;-72
2023/03/20 14:05:55;;;;;;;2.77;1.13;;;17.30;62.20;;;;;;4976952;28;20888;-71
2023/03/20 14:08:35;;;;;;;2.40;1.27;;;17.10;58.40;;;;;;4976726;28;20952;-72
2023/03/20 14:11:14;;;;;;;2.30;1.40;;;17.30;58.90;;;;;;4976917;28;20478;-73
2023/03/20 14:13:46;;;;;;;2.73;1.30;;;17.10;61.20;;;;;;4976909;28;20448;-72
2023/03/20 14:16:15;;;;;;;2.70;1.50;;;17.20;61.90;;;;;;4976910;28;20427;-73
2023/03/20 14:18:44;;;;;;;2.30;1.10;;;17.40;60.80;;;;;;4976498;28;20951;-73
2023/03/20 14:21:13;;;;;;;2.60;1.20;;;17.60;58.80;;;;;;4976648;28;21033;-72
2023/03/20 14:23:46;;;;;;;2.73;1.07;;;17.50;58.80;;;;;;4976719;28;20447;-72
2023/03/20 14:26:21;;;;;;;2.07;0.80;;;17.20;57.50;;;;;;4977238;28;20430;-72
2023/03/20 14:28:58;;;;;;;2.10;1.00;;;17.10;56.30;;;;;;4976560;28;20464;-72
2023/03/20 14:31:29;;;;;;;2.30;1.00;;;16.90;55.40;;;;;;4976688;28;20554;-73
2023/03/20 14:34:07;;;;;;;2.00;0.80;;;16.50;56.30;;;;;;4976385;28;20841;-72
2023/03/20 14:36:45;;;;;;;2.47;0.80;;;16.20;57.70;;;;;;4976565;28;20521;-73
2023/03/20 14:39:25;;;;;;;2.00;1.00;;;16.40;57.50;;;;;;4975910;28;20434;-72
2023/03/20 14:42:02;;;;;;;2.70;1.00;;;16.40;57.50;;;;;;4976631;28;20470;-72
2023/03/20 14:44:44;;;;;;;2.10;0.93;;;16.30;57.70;;;;;;4976319;28;20438;-72
2023/03/20 14:47:22;;;;;;;1.90;0.90;;;16.30;58.40;;;;;;4976346;28;20434;-72
2023/03/20 14:49:55;;;;;;;2.20;0.90;;;16.20;58.70;;;;;;4976369;28;20497;-72
2023/03/20 14:52:37;;;;;;;2.00;0.80;;;16.20;58.20;;;;;;4976492;28;20473;-72
2023/03/20 14:55:30;;;;;;;1.90;0.80;;;16.30;57.80;;;;;;4976496;28;20553;-72
2023/03/20 14:57:57;;;;;;;2.20;1.00;;;16.20;57.20;;;;;;4975877;28;20972;-72
2023/03/20 15:00:28;;;;;;;2.13;1.00;;;16.10;57.40;;;;;;4975905;28;20509;-72
2023/03/20 15:03:05;;;;;;;1.90;0.83;;;15.90;56.90;;;;;;4976056;28;20442;-71
2023/03/20 15:05:34;;;;;;;2.00;0.90;;;15.90;57.00;;;;;;4975514;28;20959;-72
2023/03/20 15:08:07;;;;;;;2.20;0.87;;;15.80;57.40;;;;;;4975822;28;20501;-72
2023/03/20 15:10:37;;;;;;;1.90;0.70;;;15.60;57.20;;;;;;4975801;28;20430;-71
2023/03/20 15:13:07;;;;;;;2.13;0.80;;;15.60;58.30;;;;;;4975741;28;20446;-72
2023/03/20 15:15:34;;;;;;;2.60;1.07;;;15.60;57.80;;;;;;4975577;28;20494;-71
2023/03/20 15:18:07;;;;;;;1.87;0.80;;;15.40;58.10;;;;;;4976206;28;20521;-71
2023/03/20 15:20:36;;;;;;;2.10;0.80;;;15.30;58.70;;;;;;4975609;28;20442;-71
2023/03/20 15:23:03;;;;;;;1.90;0.80;;;15.30;58.60;;;;;;4975837;28;20454;-71
2023/03/20 15:25:33;;;;;;;2.00;0.80;;;15.30;58.90;;;;;;4975553;28;20486;-71
2023/03/20 15:28:05;;;;;;;1.90;0.80;;;15.40;58.60;;;;;;4975473;28;20541;-72
2023/03/20 15:30:33;;;;;;;2.17;0.97;;;15.50;58.60;;;;;;4975299;28;20490;-71
2023/03/20 15:33:00;;;;;;;1.90;0.73;;;15.40;58.80;;;;;;4975096;28;20439;-71
2023/03/20 15:35:27;;;;;;;1.80;0.70;;;15.40;58.40;;;;;;4975302;28;20474;-71
2023/03/20 15:37:58;;;;;;;2.20;1.00;;;15.40;59.10;;;;;;4974838;28;20450;-71
2023/03/20 15:40:27;;;;;;;2.30;0.90;;;15.00;59.60;;;;;;4975390;28;20509;-72
2023/03/20 15:42:56;;;;;;;2.00;0.90;;;15.00;60.20;;;;;;4975179;28;20455;-71
2023/03/20 15:45:27;;;;;;;2.20;1.00;;;15.10;59.90;;;;;;4975161;28;20442;-72
2023/03/20 15:48:00;;;;;;;2.30;1.00;;;15.10;59.90;;;;;;4975138;28;20439;-71
2023/03/20 15:50:30;;;;;;;1.90;0.90;;;15.10;60.30;;;;;;4975007;28;20517;-71
2023/03/20 15:52:57;;;;;;;2.10;0.93;;;15.00;60.20;;;;;;4975082;28;20454;-70
2023/03/20 15:55:26;;;;;;;1.90;0.87;;;14.90;60.20;;;;;;4974856;28;20557;-71
2023/03/20 15:57:56;;;;;;;2.47;1.10;;;14.90;60.50;;;;;;4974985;28;20501;-71
2023/03/20 16:00:30;;;;;;;2.23;0.87;;;14.90;61.00;;;;;;4974551;28;20928;-70
2023/03/20 16:02:58;;;;;;;2.20;1.17;;;14.80;60.70;;;;;;4974988;28;20426;-71
2023/03/20 16:05:27;;;;;;;2.43;0.90;;;14.60;61.10;;;;;;4974899;28;20494;-71
2023/03/20 16:07:55;;;;;;;3.70;0.80;;;14.50;61.10;;;;;;4974501;28;20804;-72
2023/03/20 16:10:28;;;;;;;2.50;1.23;;;14.60;61.40;;;;;;4974806;28;20442;-73
2023/03/20 16:12:56;;;;;;;1.90;0.80;;;14.60;61.40;;;;;;4974793;28;20502;-71
2023/03/20 16:15:26;;;;;;;2.20;0.90;;;14.80;61.20;;;;;;4974335;28;21006;-73
2023/03/20 16:17:57;;;;;;;2.30;1.00;;;14.60;60.40;;;;;;4999061;23;20493;-70
2023/03/20 16:20:25;;;;;;;2.00;0.80;;;14.50;60.60;;;;;;4974742;28;20450;-71
2023/03/20 16:22:59;;;;;;;2.30;1.00;;;14.60;61.00;;;;;;4974609;28;20459;-69
2023/03/20 16:25:25;;;;;;;2.50;1.07;;;14.70;60.90;;;;;;4974773;28;20431;-70
2023/03/20 16:27:53;;;;;;;2.20;1.10;;;14.80;61.60;;;;;;4974574;28;20478;-69
2023/03/20 16:30:26;;;;;;;2.43;1.20;;;14.90;60.20;;;;;;4974574;28;20457;-67
2023/03/20 16:32:57;;;;;;;2.87;1.03;;;14.80;59.30;;;;;;4974529;28;20431;-67
2023/03/20 16:35:27;;;;;;;2.10;0.80;;;14.80;60.00;;;;;;4974770;28;20521;-67
2023/03/20 16:37:55;;;;;;;2.30;0.93;;;14.80;60.20;;;;;;4974618;28;20473;-68
2023/03/20 16:40:30;;;;;;;2.07;0.93;;;14.80;59.70;;;;;;4974301;28;20454;-68
2023/03/20 16:42:57;;;;;;;2.10;1.00;;;14.80;59.90;;;;;;4974211;28;20437;-68
2023/03/20 16:45:30;;;;;;;2.13;0.90;;;14.80;59.90;;;;;;4974181;28;20999;-68
2023/03/20 16:48:24;;;;;;;1.97;0.87;;;14.90;59.30;;;;;;4974023;28;21010;-68
2023/03/20 16:50:56;;;;;;;2.37;0.90;;;14.70;60.20;;;;;;4974452;28;20426;-68
2023/03/20 16:53:23;;;;;;;2.23;1.17;;;14.60;60.20;;;;;;4974138;28;20438;-68
2023/03/20 16:55:54;;;;;;;2.30;1.00;;;14.70;60.50;;;;;;4974113;28;20486;-67
2023/03/20 16:58:23;;;;;;;2.23;1.00;;;14.50;60.30;;;;;;4974396;28;20476;-68
2023/03/20 17:00:58;;;;;;;2.00;0.80;;;14.40;60.30;;;;;;4974144;28;20454;-68
2023/03/20 17:03:26;;;;;;;2.00;0.80;;;14.10;60.90;;;;;;4978316;28;20434;-68
2023/03/20 17:05:56;;;;;;;2.10;1.00;;;14.00;61.50;;;;;;4978039;28;20867;-69